Regional Weather

 

KMKL - Jackson, TN, USA
Distance from station: WNW 50mi, 81km
Updated: Wed, Dec-12-2018 12:53pm CST
Overcast
Overcast
 Wind from SSW
Wind: SSW 9 mph , 15 km/h
Temperature: 52°F , 11°C
Dew Point: 34°F , 1°C
Humidity: 50%
Barometer: 30.04 inHg , 1017.3 hPa
Clouds: Overcast
Visibility: 10 miles , 16 km
Cloud details: Few Clouds 3800 ft
Overcast 7000 ft
2018/12/12 18:53 KMKL 121853Z 20008KT 10SM FEW038 OVC070 11/01 A3004 RMK AO2 SLP175 T01110006
KMEM - Memphis, TN, USA
Distance from station: W 108mi, 173km
Updated: Wed, Dec-12-2018 12:54pm CST
Overcast
Overcast
 Wind from SSW
Wind: SSW 14 mph , 22 km/h, Gust: 22 mph , 35 km/h
Temperature: 52°F , 11°C
Dew Point: 28°F , -2°C
Humidity: 41%
Barometer: 30.05 inHg , 1017.6 hPa
Clouds: Overcast
Visibility: 10 miles , 16 km
Cloud details: Mostly cloudy 4000 ft
Mostly cloudy 5500 ft
Overcast 7000 ft
2018/12/12 18:54 KMEM 121854Z 21012G19KT 10SM BKN040 BKN055 OVC070 11/M02 A3005 RMK AO2 SLP176 T01061022
 
KBNA - Nashville, TN, USA
Distance from station: NE 97mi, 157km
Updated: Wed, Dec-12-2018 12:53pm CST
Overcast
Overcast
 Wind from SW
Wind: SW 10 mph , 17 km/h
Temperature: 52°F , 11°C
Dew Point: 30°F , -1°C
Humidity: 44%
Barometer: 30.06 inHg , 1017.9 hPa
Clouds: Overcast
Visibility: 10 miles , 16 km
Cloud details: Partly cloudy 3500 ft
Mostly cloudy 5500 ft
Overcast 20000 ft
2018/12/12 18:53 KBNA 121853Z 22009KT 10SM SCT035 BKN055 OVC200 11/M01 A3006 RMK AO2 SLP182 T01111011
KCKV - Clarksville, TN, USA
Distance from station: NNE 99mi, 159km
Updated: Wed, Dec-12-2018 12:52pm CST
Clear
Clear
 Wind from SW
Wind: SW 14 mph , 22 km/h, Gust: 21 mph , 33 km/h
Temperature: 54°F , 12°C
Dew Point: 36°F , 2°C
Humidity: 51%
Barometer: 30.01 inHg , 1016.3 hPa
Clouds: Clear
Visibility: 10 miles , 16 km
2018/12/12 18:52 KCKV 121852Z AUTO 22012G18KT 10SM CLR 12/02 A3001 RMK AO2 SLP162 T01220022
 
KPAH - Paducah, KY, USA
Distance from station: NNW 128mi, 205km
Updated: Wed, Dec-12-2018 12:53pm CST
Clear
Clear
 Wind from SW
Wind: SW 15 mph , 24 km/h, Gust: 24 mph , 39 km/h
Temperature: 55°F , 13°C
Dew Point: 39°F , 4°C
Humidity: 55%
Barometer: 29.96 inHg , 1014.6 hPa
Clouds: Clear
Visibility: 10 miles , 16 km
2018/12/12 18:53 KPAH 121853Z 22013G21KT 10SM CLR 13/04 A2996 RMK AO2 SLP144 T01330044
KCHA - Chattanooga, TN, USA
Distance from station: E 165mi, 265km
Updated: Wed, Dec-12-2018 12:53pm CST
Overcast
Overcast
 Wind from S
Wind: S 5 mph , 7 km/h
Temperature: 48°F , 9°C
Wind Chill: 46°F , 8°C
Dew Point: 28°F , -2°C
Humidity: 46%
Barometer: 30.16 inHg , 1021.3 hPa
Clouds: Overcast
Visibility: 10 miles , 16 km
Cloud details: Few Clouds 4000 ft
Mostly cloudy 21000 ft
Overcast 25000 ft
2018/12/12 18:53 KCHA 121853Z 19004KT 10SM FEW040 BKN210 OVC250 09/M02 A3016 RMK AO2 SLP217 T00941017
 
KTYS - Knoxville, TN, USA
Distance from station: E 234mi, 377km
Updated: Wed, Dec-12-2018 12:53pm CST
Overcast
Overcast
 Wind from SW
Wind: SW 15 mph , 24 km/h
Temperature: 48°F , 9°C
Wind Chill: 42°F , 6°C
Dew Point: 28°F , -2°C
Humidity: 46%
Barometer: 30.12 inHg , 1020 hPa
Clouds: Overcast
Visibility: 10 miles , 16 km
Cloud details: Few Clouds 17000 ft
Overcast 20000 ft
2018/12/12 18:53 KTYS 121853Z 23013KT 10SM FEW170 OVC200 09/M02 A3012 RMK AO2 SLP202 T00891017
KLIT - Little Rock, AR, USA
Distance from station: W 240mi, 386km
Updated: Wed, Dec-12-2018 12:53pm CST
Overcast
Overcast
 Wind from SSW
Wind: SSW 9 mph , 15 km/h
Temperature: 48°F , 9°C
Wind Chill: 44°F , 7°C
Dew Point: 37°F , 3°C
Humidity: 66%
Barometer: 30.03 inHg , 1016.9 hPa
Clouds: Overcast
Visibility: 10 miles , 16 km
Cloud details: Overcast 3100 ft
2018/12/12 18:53 KLIT 121853Z 21008KT 10SM OVC031 09/03 A3003 RMK AO2 SLP173 T00940033

Refresh Page for latest data.